This is the latest recevied weather packets stored in our database for station/object KB1WCR. If no packets are shown the sender has not sent any weather packets the latest 10 day(s).
| Time | Temp. | Humidity | Pressure | Rain* | Wind** | Luminosity | Snow |
|---|---|---|---|---|---|---|---|
| 1787938755 | 27.22° C | 78% | 1014.9 hPa | 0 mm | - | 457 W/m² | - |
| 1787938451 | 27.78° C | 78% | 1014.9 hPa | 0 mm | - | 401 W/m² | - |
| 1787938146 | 26.67° C | 81% | 1014.9 hPa | 0 mm | - | 440 W/m² | - |
| 1787937841 | 27.22° C | 77% | 1014.9 hPa | 0 mm | - | 334 W/m² | - |
| 1787937538 | 26.67° C | 79% | 1014.9 hPa | 0 mm | - | 467 W/m² | - |
| 1787937233 | 26.67° C | 79% | 1015.1 hPa | 0 mm | - | 489 W/m² | - |
| 1787936928 | 26.67° C | 79% | 1014.9 hPa | 0 mm | - | 383 W/m² | - |
| 1787936627 | 27.22° C | 77% | 1015.2 hPa | 0 mm | - | 619 W/m² | - |
| 1787936327 | 27.22° C | 77% | 1015.2 hPa | 0 mm | - | 832 W/m² | - |
| 1787936022 | 26.11° C | 80% | 1015.1 hPa | 0 mm | - | 473 W/m² | - |
| 1787935718 | 26.11° C | 80% | 1015.2 hPa | 0 mm | - | 316 W/m² | - |
| 1787935414 | 26.11° C | 80% | 1015.1 hPa | 0 mm | - | 245 W/m² | - |
| 1787935109 | 27.22° C | 79% | 1015.4 hPa | 0 mm | - | 369 W/m² | - |
| 1787934805 | 26.67° C | 78% | 1015.2 hPa | 0 mm | - | 480 W/m² | - |
| 1787934498 | 26.11° C | 80% | 1015.2 hPa | 0 mm | - | 395 W/m² | - |
| 1787934193 | 26.67° C | 79% | 1015.4 hPa | 0 mm | - | 456 W/m² | - |
| 1787933894 | 26.67° C | 81% | 1015.4 hPa | 0 mm | - | 377 W/m² | - |
| 1787933592 | 26.11° C | 80% | 1015.5 hPa | 0 mm | - | 726 W/m² | - |
| 1787933287 | 26.11° C | 81% | 1015.8 hPa | 0 mm | - | 565 W/m² | - |
| 1787932986 | 26.11° C | 81% | 1015.6 hPa | 0 mm | - | 301 W/m² | - |
| 1787932680 | 26.11° C | 81% | 1015.8 hPa | 0 mm | - | 388 W/m² | - |
| 1787932379 | 25.56° C | 86% | 1015.7 hPa | 0 mm | - | 523 W/m² | - |
| 1787932074 | 26.11° C | 82% | 1015.9 hPa | 0 mm | - | 534 W/m² | - |
| 1787931773 | 25.56° C | 82% | 1015.8 hPa | 0 mm | - | 482 W/m² | - |
| 1787931468 | 25° C | 84% | 1015.9 hPa | 0 mm | - | 414 W/m² | - |
* Rain latest hour (hover to see other rain measurements)
** Current wind speed in m/s (hover to see current wind gust speed)